Time;durP1;ratioP1;P1;durP2;ratioP2;P2;SDS_P1;SDS_P2;PMS_P1;PMS_P2;Temp;Humidity;BMP_temperature;BMP_pressure;BME280_temperature;BME280_humidity;BME280_pressure;Samples;Min_cycle;Max_cycle;Signal;HPM_P1;HPM_P2
2022/07/23 00:00:18;;;;;;;11.35;4.25;;;18.00;99.90;;;;;;5003659;28;20411;-69
2022/07/23 00:02:45;;;;;;;13.25;6.07;;;18.00;99.90;;;;;;5002331;28;20050;-68
2022/07/23 00:05:12;;;;;;;15.93;5.72;;;18.00;99.90;;;;;;5004460;28;20379;-68
2022/07/23 00:07:40;;;;;;;8.90;4.80;;;18.00;99.90;;;;;;5007657;28;20042;-68
2022/07/23 00:10:07;;;;;;;15.75;5.65;;;18.00;99.90;;;;;;5008702;28;20049;-68
2022/07/23 00:12:35;;;;;;;5.43;4.93;;;18.00;99.90;;;;;;5005901;28;20053;-68
2022/07/23 00:15:04;;;;;;;7.78;6.07;;;18.20;99.90;;;;;;4999727;28;20089;-69
2022/07/23 00:17:31;;;;;;;6.05;5.47;;;18.20;99.90;;;;;;4997229;28;20093;-68
2022/07/23 00:19:59;;;;;;;7.28;4.93;;;18.30;99.90;;;;;;5004078;28;20096;-69
2022/07/23 00:22:27;;;;;;;6.38;4.78;;;18.40;99.90;;;;;;5003929;28;20527;-69
2022/07/23 00:24:54;;;;;;;5.60;4.57;;;18.40;99.90;;;;;;4995248;28;20058;-73
2022/07/23 00:27:42;;;;;;;6.95;4.22;;;18.40;99.90;;;;;;5004682;28;20244;-69
2022/07/23 00:30:10;;;;;;;4.78;3.55;;;18.40;99.90;;;;;;5008243;28;20049;-70
2022/07/23 00:32:50;;;;;;;3.92;3.35;;;18.40;99.90;;;;;;4997185;28;20503;-68
2022/07/23 00:35:25;;;;;;;3.55;3.08;;;18.40;99.90;;;;;;5002038;28;20141;-68
2022/07/23 00:37:52;;;;;;;3.57;3.27;;;18.40;99.90;;;;;;5009529;28;20048;-68
2022/07/23 00:40:19;;;;;;;4.63;3.40;;;18.40;99.90;;;;;;5005137;28;20074;-68
2022/07/23 00:42:46;;;;;;;5.97;4.10;;;18.30;99.90;;;;;;5006092;28;20503;-75
2022/07/23 00:45:13;;;;;;;9.90;3.88;;;18.30;99.90;;;;;;4994713;28;20050;-68
2022/07/23 00:47:40;;;;;;;4.45;3.00;;;18.30;99.90;;;;;;4994536;28;20038;-68
2022/07/23 00:50:08;;;;;;;7.97;4.43;;;18.30;99.90;;;;;;5009300;28;20120;-70
2022/07/23 00:52:38;;;;;;;6.18;3.40;;;18.20;99.90;;;;;;4998527;28;20424;-68
2022/07/23 00:55:06;;;;;;;7.30;3.43;;;18.20;99.90;;;;;;5008503;28;20149;-69
2022/07/23 00:57:33;;;;;;;7.38;3.50;;;18.10;99.90;;;;;;5006663;28;20364;-75
2022/07/23 01:00:05;;;;;;;9.48;3.88;;;18.10;99.90;;;;;;4998513;28;20080;-68
2022/07/23 01:02:32;;;;;;;4.28;2.55;;;18.10;99.90;;;;;;4999857;28;20084;-68
2022/07/23 01:04:59;;;;;;;7.65;4.07;;;18.20;99.90;;;;;;5008711;28;20054;-68
2022/07/23 01:07:26;;;;;;;5.45;3.53;;;18.10;99.90;;;;;;5005682;28;20076;-69
2022/07/23 01:09:54;;;;;;;5.43;3.30;;;18.10;99.90;;;;;;5005368;28;20068;-68
2022/07/23 01:12:21;;;;;;;9.93;3.50;;;18.00;99.90;;;;;;4992905;28;20505;-68
2022/07/23 01:14:59;;;;;;;10.90;4.53;;;18.00;99.90;;;;;;5019238;28;20050;-68
2022/07/23 01:17:28;;;;;;;6.72;3.65;;;18.00;99.90;;;;;;4996793;28;20128;-70
2022/07/23 01:19:55;;;;;;;10.95;4.30;;;17.90;99.90;;;;;;4996709;28;20050;-68
2022/07/23 01:22:23;;;;;;;7.60;3.83;;;17.90;99.90;;;;;;4997771;28;20069;-68
2022/07/23 01:24:50;;;;;;;7.90;4.20;;;17.90;99.90;;;;;;4993954;28;20436;-76
2022/07/23 01:27:21;;;;;;;7.95;4.00;;;17.90;99.90;;;;;;4999769;28;20476;-68
2022/07/23 01:29:54;;;;;;;8.25;4.13;;;17.90;99.90;;;;;;4990830;28;20128;-68
2022/07/23 01:32:21;;;;;;;3.80;3.50;;;17.90;99.90;;;;;;4990663;28;20109;-67
2022/07/23 01:34:48;;;;;;;7.43;3.40;;;17.90;99.90;;;;;;5003633;28;20080;-70
2022/07/23 01:37:15;;;;;;;5.15;3.65;;;17.90;99.90;;;;;;5005321;28;20046;-68
2022/07/23 01:39:43;;;;;;;5.85;3.33;;;17.90;99.90;;;;;;4998691;28;20365;-67
2022/07/23 01:42:11;;;;;;;6.07;3.85;;;17.90;99.90;;;;;;4982323;28;20080;-67
2022/07/23 01:44:40;;;;;;;11.30;3.58;;;17.90;99.90;;;;;;5000242;28;20064;-69
2022/07/23 01:47:11;;;;;;;7.03;3.92;;;17.90;99.90;;;;;;4997341;28;20046;-69
2022/07/23 01:49:38;;;;;;;8.68;3.53;;;17.90;99.90;;;;;;5007583;28;20050;-68
2022/07/23 01:52:28;;;;;;;6.55;3.72;;;17.90;99.90;;;;;;5001634;28;20042;-69
2022/07/23 01:54:55;;;;;;;9.50;3.97;;;17.90;99.90;;;;;;5001258;28;20116;-67
2022/07/23 01:57:22;;;;;;;8.93;3.88;;;17.90;99.90;;;;;;5002989;28;20058;-69
2022/07/23 01:59:49;;;;;;;6.47;4.25;;;17.90;99.90;;;;;;4994160;28;20046;-68
2022/07/23 02:02:18;;;;;;;9.30;4.90;;;18.00;99.90;;;;;;5006538;28;20157;-68
2022/07/23 02:04:46;;;;;;;5.20;3.25;;;17.90;99.90;;;;;;5005281;28;20099;-71
2022/07/23 02:07:15;;;;;;;6.82;3.60;;;17.90;99.90;;;;;;5003274;28;20056;-68
2022/07/23 02:09:42;;;;;;;6.95;5.18;;;18.00;99.90;;;;;;4992033;28;20046;-68
2022/07/23 02:12:12;;;;;;;4.43;3.45;;;17.90;99.90;;;;;;5002599;28;20049;-74
2022/07/23 02:14:38;;;;;;;8.02;3.03;;;17.90;99.90;;;;;;5002717;28;20111;-67
2022/07/23 02:17:05;;;;;;;14.18;4.25;;;17.90;99.90;;;;;;5003894;28;20072;-69
2022/07/23 02:19:34;;;;;;;12.27;3.83;;;17.90;99.90;;;;;;4998390;28;20102;-68
2022/07/23 02:22:01;;;;;;;9.57;3.67;;;17.90;99.90;;;;;;5006257;28;20126;-68
2022/07/23 02:24:28;;;;;;;5.63;3.58;;;17.90;99.90;;;;;;5007092;28;20053;-70
2022/07/23 02:26:55;;;;;;;10.02;3.55;;;17.90;99.90;;;;;;5000917;28;20116;-68
2022/07/23 02:29:22;;;;;;;7.68;3.78;;;17.90;99.90;;;;;;5003102;28;20088;-68
2022/07/23 02:31:49;;;;;;;13.18;3.83;;;17.90;99.90;;;;;;5002937;28;20046;-69
2022/07/23 02:34:16;;;;;;;7.10;3.92;;;17.80;99.90;;;;;;4993536;28;20389;-69
2022/07/23 02:36:43;;;;;;;10.70;3.63;;;17.90;99.90;;;;;;5002603;28;20594;-68
2022/07/23 02:39:11;;;;;;;6.93;3.15;;;17.80;99.90;;;;;;4997442;28;20384;-68
2022/07/23 02:41:38;;;;;;;7.35;2.78;;;17.80;99.90;;;;;;4997005;28;20124;-70
2022/07/23 02:44:05;;;;;;;5.95;3.70;;;17.80;99.90;;;;;;4996687;28;20954;-70
2022/07/23 02:46:32;;;;;;;6.78;3.55;;;17.80;99.90;;;;;;4995858;28;20476;-67
2022/07/23 02:49:00;;;;;;;5.35;3.22;;;17.80;99.90;;;;;;5004780;28;20056;-68
2022/07/23 02:51:30;;;;;;;8.70;3.78;;;17.80;99.90;;;;;;4994237;28;20062;-70
2022/07/23 02:54:01;;;;;;;6.35;3.20;;;17.80;99.90;;;;;;5002630;28;20064;-68
2022/07/23 02:56:28;;;;;;;6.38;3.83;;;17.80;99.90;;;;;;5005602;28;20045;-68
2022/07/23 02:58:56;;;;;;;8.75;3.10;;;17.80;99.90;;;;;;5005154;28;20064;-69
2022/07/23 03:01:23;;;;;;;8.55;3.83;;;17.80;99.90;;;;;;5005967;28;20041;-68
2022/07/23 03:03:50;;;;;;;4.93;2.72;;;17.80;99.90;;;;;;4998881;28;20049;-69
2022/07/23 03:06:17;;;;;;;8.35;3.53;;;17.70;99.90;;;;;;4996193;28;20080;-67
2022/07/23 03:08:45;;;;;;;12.38;3.08;;;17.70;99.90;;;;;;4999726;28;20053;-67
2022/07/23 03:11:12;;;;;;;6.88;3.47;;;17.70;99.90;;;;;;4994782;28;20215;-68
2022/07/23 03:13:41;;;;;;;5.43;3.38;;;17.70;99.90;;;;;;4996295;28;20062;-67
2022/07/23 03:16:08;;;;;;;6.10;2.67;;;17.70;99.90;;;;;;4984610;28;20346;-68
2022/07/23 03:18:36;;;;;;;14.18;4.32;;;17.70;99.90;;;;;;4985104;28;20129;-68
2022/07/23 03:21:08;;;;;;;11.98;3.42;;;17.60;99.90;;;;;;4981272;28;20054;-71
2022/07/23 03:23:37;;;;;;;8.82;3.88;;;17.60;99.90;;;;;;4984907;28;20049;-73
2022/07/23 03:26:04;;;;;;;5.90;3.80;;;17.60;99.90;;;;;;4982101;28;20477;-67
2022/07/23 03:28:31;;;;;;;7.47;3.53;;;17.60;99.90;;;;;;4990672;28;20471;-67
2022/07/23 03:30:58;;;;;;;9.80;4.63;;;17.60;99.90;;;;;;4989985;28;20468;-73
2022/07/23 03:33:25;;;;;;;9.73;3.83;;;17.60;99.90;;;;;;4998151;28;20058;-70
2022/07/23 03:35:53;;;;;;;5.72;3.00;;;17.50;99.90;;;;;;5004372;28;20073;-68
2022/07/23 03:38:29;;;;;;;8.23;3.25;;;17.60;99.90;;;;;;5004954;28;20042;-68
2022/07/23 03:40:56;;;;;;;22.92;4.63;;;17.60;99.90;;;;;;4997112;28;20157;-70
2022/07/23 03:43:25;;;;;;;9.00;3.75;;;17.50;99.90;;;;;;4980656;28;20093;-68
2022/07/23 03:45:52;;;;;;;8.57;2.50;;;17.50;99.90;;;;;;4987594;28;20045;-67
2022/07/23 03:48:19;;;;;;;4.65;3.33;;;17.50;99.90;;;;;;4982069;28;20066;-68
2022/07/23 03:50:46;;;;;;;5.90;3.67;;;17.50;99.90;;;;;;4984495;28;20135;-69
2022/07/23 03:53:13;;;;;;;4.88;2.83;;;17.50;99.90;;;;;;4990996;28;20107;-68
2022/07/23 03:55:40;;;;;;;6.50;3.20;;;17.50;99.90;;;;;;4992539;28;20066;-68
2022/07/23 03:58:07;;;;;;;13.70;3.85;;;17.50;99.90;;;;;;5009557;28;20046;-67
2022/07/23 04:00:34;;;;;;;5.63;3.72;;;17.50;99.90;;;;;;5008725;28;20100;-67
2022/07/23 04:03:02;;;;;;;5.32;3.17;;;17.50;99.90;;;;;;5008024;28;20054;-67
2022/07/23 04:05:29;;;;;;;10.18;3.47;;;17.50;99.90;;;;;;4999301;28;20577;-68
2022/07/23 04:08:05;;;;;;;4.43;3.53;;;17.60;99.90;;;;;;5003634;28;21775;-68
2022/07/23 04:10:34;;;;;;;7.50;4.03;;;17.60;99.90;;;;;;5002507;28;20749;-71
2022/07/23 04:13:03;;;;;;;14.05;3.83;;;17.60;99.90;;;;;;4998540;28;20042;-69
2022/07/23 04:15:29;;;;;;;13.48;3.42;;;17.60;99.90;;;;;;4998652;28;20082;-68
2022/07/23 04:17:57;;;;;;;5.55;2.88;;;17.60;99.90;;;;;;4993825;28;20049;-68
2022/07/23 04:20:31;;;;;;;11.13;3.85;;;17.70;99.90;;;;;;5003496;28;20056;-70
2022/07/23 04:23:05;;;;;;;8.00;3.45;;;17.70;99.90;;;;;;5007874;28;20064;-71
2022/07/23 04:25:32;;;;;;;6.85;3.33;;;17.70;99.90;;;;;;4993463;28;20056;-68
2022/07/23 04:27:59;;;;;;;9.27;4.85;;;17.80;99.90;;;;;;5003434;28;20046;-68
2022/07/23 04:30:26;;;;;;;5.45;3.15;;;17.80;99.90;;;;;;5003461;28;20054;-70
2022/07/23 04:32:54;;;;;;;5.53;3.28;;;17.80;99.90;;;;;;5007895;28;20350;-72
2022/07/23 04:35:26;;;;;;;6.30;3.47;;;17.80;99.90;;;;;;4997633;28;20050;-68
2022/07/23 04:37:57;;;;;;;4.10;2.58;;;17.80;99.90;;;;;;4999924;28;20046;-67
2022/07/23 04:40:24;;;;;;;4.93;2.63;;;17.80;99.90;;;;;;4989628;28;20049;-70
2022/07/23 04:42:51;;;;;;;4.25;2.63;;;17.80;99.90;;;;;;4989747;28;20467;-67
2022/07/23 04:45:18;;;;;;;5.50;2.63;;;17.80;99.90;;;;;;5002621;28;20077;-67
2022/07/23 04:47:47;;;;;;;7.47;2.63;;;17.80;99.90;;;;;;4994812;28;20073;-67
2022/07/23 04:50:18;;;;;;;7.93;3.38;;;17.70;99.90;;;;;;5018592;28;20042;-67
2022/07/23 04:52:45;;;;;;;7.03;3.03;;;17.70;99.90;;;;;;4982537;28;20141;-68
2022/07/23 04:55:12;;;;;;;7.70;4.03;;;17.70;99.90;;;;;;5002959;28;20042;-72
2022/07/23 04:57:39;;;;;;;7.50;3.28;;;17.80;99.90;;;;;;5007630;28;20065;-68
2022/07/23 05:00:08;;;;;;;6.50;3.53;;;17.80;99.90;;;;;;4991281;28;20065;-70
2022/07/23 05:02:35;;;;;;;10.65;3.83;;;17.80;99.90;;;;;;4981981;28;20335;-68
2022/07/23 05:05:03;;;;;;;7.80;3.75;;;17.80;99.90;;;;;;5002671;28;20045;-69
2022/07/23 05:07:29;;;;;;;4.25;3.20;;;17.80;99.90;;;;;;5003481;28;20065;-67
2022/07/23 05:09:56;;;;;;;6.70;4.07;;;17.80;99.90;;;;;;5002943;28;20046;-69
2022/07/23 05:12:23;;;;;;;7.57;3.47;;;17.80;99.90;;;;;;4994885;28;20058;-67
2022/07/23 05:14:51;;;;;;;6.95;3.45;;;17.90;99.90;;;;;;5006548;28;20049;-68
2022/07/23 05:17:19;;;;;;;8.77;3.60;;;17.90;99.90;;;;;;5002390;28;20050;-70
2022/07/23 05:19:46;;;;;;;5.75;3.92;;;17.90;99.90;;;;;;5002483;28;20797;-69
2022/07/23 05:22:13;;;;;;;8.57;4.68;;;17.90;99.90;;;;;;5008203;28;20419;-69
2022/07/23 05:24:40;;;;;;;8.95;4.72;;;17.80;99.90;;;;;;4995406;28;20490;-67
2022/07/23 05:27:07;;;;;;;5.25;3.83;;;17.90;99.90;;;;;;4996033;28;20465;-68
2022/07/23 05:29:35;;;;;;;15.02;5.05;;;17.90;99.90;;;;;;4998690;28;20129;-70
2022/07/23 05:32:02;;;;;;;11.40;4.18;;;17.90;99.90;;;;;;4996874;28;20528;-67
2022/07/23 05:34:31;;;;;;;10.82;3.75;;;18.00;99.90;;;;;;4995437;28;20750;-72
2022/07/23 05:36:59;;;;;;;5.65;3.83;;;17.90;99.90;;;;;;5000400;28;20050;-68
2022/07/23 05:39:26;;;;;;;6.90;2.72;;;18.00;99.90;;;;;;5004960;28;20129;-71
2022/07/23 05:41:53;;;;;;;4.20;2.65;;;18.00;99.90;;;;;;4998693;28;20457;-67
2022/07/23 05:44:20;;;;;;;7.25;4.03;;;18.00;99.90;;;;;;5006567;28;20046;-67
2022/07/23 05:46:47;;;;;;;14.02;3.45;;;18.00;99.90;;;;;;5001770;28;20165;-68
2022/07/23 05:49:19;;;;;;;10.25;3.83;;;18.00;99.90;;;;;;4999793;28;20091;-71
2022/07/23 05:52:05;;;;;;;4.03;2.92;;;18.00;99.90;;;;;;4997548;28;20074;-67
2022/07/23 05:54:51;;;;;;;8.00;3.63;;;18.10;99.90;;;;;;4995497;28;20065;-74
2022/07/23 05:57:18;;;;;;;8.95;2.85;;;18.10;99.90;;;;;;4995728;28;20053;-67
2022/07/23 05:59:51;;;;;;;6.93;3.20;;;18.10;99.90;;;;;;4996271;28;20046;-68
2022/07/23 06:02:18;;;;;;;6.75;5.25;;;18.10;99.90;;;;;;4993268;28;20065;-68
2022/07/23 06:04:45;;;;;;;7.15;4.43;;;18.10;99.90;;;;;;4998413;28;20141;-67
2022/07/23 06:07:24;;;;;;;6.57;3.83;;;18.10;99.90;;;;;;4997781;28;20042;-68
2022/07/23 06:09:51;;;;;;;7.10;4.18;;;18.10;99.90;;;;;;4999541;28;20100;-68
2022/07/23 06:12:18;;;;;;;4.78;4.32;;;18.10;99.90;;;;;;5012869;28;20050;-67
2022/07/23 06:14:48;;;;;;;8.55;5.30;;;18.20;99.90;;;;;;4999276;28;20810;-68
2022/07/23 06:17:15;;;;;;;4.32;4.00;;;18.20;99.90;;;;;;4993499;28;20125;-68
2022/07/23 06:19:42;;;;;;;6.00;3.80;;;18.20;99.90;;;;;;5002957;28;20049;-67
2022/07/23 06:22:09;;;;;;;5.85;3.30;;;18.30;99.90;;;;;;4993065;28;20168;-72
2022/07/23 06:24:36;;;;;;;6.45;4.30;;;18.40;99.90;;;;;;4994250;28;20052;-67
2022/07/23 06:27:04;;;;;;;11.95;5.20;;;18.30;99.90;;;;;;4985862;28;20121;-76
2022/07/23 06:29:31;;;;;;;5.00;3.55;;;18.30;99.90;;;;;;4996847;28;20046;-69
2022/07/23 06:31:59;;;;;;;4.65;3.53;;;18.40;99.90;;;;;;5000198;28;20046;-68
2022/07/23 06:34:26;;;;;;;4.45;3.30;;;18.50;99.90;;;;;;4999107;28;20287;-68
2022/07/23 06:36:55;;;;;;;7.05;3.63;;;18.60;99.90;;;;;;5000231;28;20046;-68
2022/07/23 06:39:22;;;;;;;5.38;2.47;;;18.70;99.90;;;;;;4990723;28;20365;-69
2022/07/23 06:41:50;;;;;;;3.42;2.50;;;18.70;99.90;;;;;;4994187;28;20042;-75
2022/07/23 06:44:35;;;;;;;3.85;2.72;;;18.70;99.90;;;;;;4997908;28;20372;-68
2022/07/23 06:47:02;;;;;;;3.30;2.63;;;18.70;99.90;;;;;;5001372;28;20073;-71
2022/07/23 06:49:29;;;;;;;5.65;2.80;;;18.60;99.90;;;;;;4989464;28;20038;-71
2022/07/23 06:51:57;;;;;;;5.38;3.40;;;18.60;99.90;;;;;;4991270;28;20141;-70
2022/07/23 06:54:24;;;;;;;6.32;3.17;;;18.70;99.90;;;;;;4994383;28;20336;-67
2022/07/23 06:56:51;;;;;;;6.20;3.42;;;18.60;99.90;;;;;;4996037;28;20058;-69
2022/07/23 06:59:18;;;;;;;5.22;2.90;;;18.50;99.90;;;;;;4999637;28;20084;-67
2022/07/23 07:01:45;;;;;;;7.07;2.85;;;18.50;99.90;;;;;;4997396;28;20108;-69
2022/07/23 07:04:12;;;;;;;3.28;2.80;;;18.60;99.90;;;;;;4993394;28;20125;-68
2022/07/23 07:06:39;;;;;;;5.30;3.13;;;18.70;99.90;;;;;;4980918;28;20147;-70
2022/07/23 07:09:06;;;;;;;4.95;3.22;;;18.60;99.90;;;;;;4980917;28;20418;-68
2022/07/23 07:11:33;;;;;;;4.97;3.70;;;18.60;99.90;;;;;;5005162;28;20376;-68
2022/07/23 07:13:59;;;;;;;4.43;2.92;;;18.70;99.90;;;;;;5002306;28;20078;-68
2022/07/23 07:16:26;;;;;;;6.40;4.85;;;18.80;99.90;;;;;;5003067;28;20061;-67
2022/07/23 07:18:58;;;;;;;4.28;2.85;;;18.80;99.90;;;;;;4999546;28;20065;-68
2022/07/23 07:21:26;;;;;;;10.48;3.92;;;18.70;99.90;;;;;;4999977;28;20057;-69
2022/07/23 07:23:53;;;;;;;6.35;3.85;;;18.70;99.90;;;;;;4994774;28;20078;-67
2022/07/23 07:26:20;;;;;;;5.13;2.78;;;18.80;99.90;;;;;;5001093;28;20042;-67
2022/07/23 07:28:46;;;;;;;5.55;4.05;;;19.00;99.90;;;;;;4999621;28;20738;-71
2022/07/23 07:31:13;;;;;;;4.45;2.88;;;19.00;99.90;;;;;;5000409;28;20038;-67
2022/07/23 07:33:42;;;;;;;3.40;3.10;;;19.00;99.90;;;;;;5005201;28;20044;-67
2022/07/23 07:36:09;;;;;;;6.38;3.78;;;19.00;99.90;;;;;;5006914;28;20629;-68
2022/07/23 07:38:36;;;;;;;5.47;4.50;;;18.90;99.90;;;;;;5012063;28;20058;-67
2022/07/23 07:41:02;;;;;;;5.55;3.75;;;18.90;99.90;;;;;;5015972;28;20115;-68
2022/07/23 07:43:29;;;;;;;4.82;3.22;;;19.00;99.90;;;;;;4986450;28;20451;-69
2022/07/23 07:45:56;;;;;;;4.30;3.50;;;19.20;99.90;;;;;;4984495;28;20050;-69
2022/07/23 07:48:23;;;;;;;5.97;3.47;;;19.10;99.90;;;;;;4994995;28;20199;-69
2022/07/23 07:50:50;;;;;;;6.10;4.82;;;19.30;99.90;;;;;;5002594;28;20456;-67
2022/07/23 07:53:18;;;;;;;9.13;4.50;;;19.30;99.90;;;;;;4980501;28;20038;-68
2022/07/23 07:55:45;;;;;;;4.00;3.28;;;19.50;99.90;;;;;;5003613;28;20054;-67
2022/07/23 07:58:17;;;;;;;4.10;2.97;;;19.60;99.90;;;;;;5000568;28;20035;-69
2022/07/23 08:00:44;;;;;;;5.57;4.10;;;19.50;99.90;;;;;;4993517;28;20133;-68
2022/07/23 08:03:11;;;;;;;7.50;4.00;;;19.40;99.90;;;;;;4993306;28;20144;-69
2022/07/23 08:05:39;;;;;;;4.32;3.33;;;19.20;99.90;;;;;;5001090;28;20630;-68
2022/07/23 08:08:06;;;;;;;6.13;3.20;;;19.20;99.90;;;;;;4994583;28;20101;-66
2022/07/23 08:10:33;;;;;;;3.90;3.28;;;19.20;99.90;;;;;;5003250;28;20420;-73
2022/07/23 08:13:00;;;;;;;5.38;3.88;;;19.30;99.90;;;;;;4994558;28;20757;-71
2022/07/23 08:15:29;;;;;;;7.15;3.85;;;19.30;99.90;;;;;;4997774;28;20105;-69
2022/07/23 08:17:56;;;;;;;7.45;4.35;;;19.20;99.90;;;;;;4998780;28;20223;-71
2022/07/23 08:20:24;;;;;;;6.30;4.03;;;19.20;99.90;;;;;;5004488;28;20357;-67
2022/07/23 08:22:57;;;;;;;3.88;3.42;;;19.30;99.90;;;;;;4999030;28;20129;-71
2022/07/23 08:25:30;;;;;;;3.85;3.50;;;19.40;99.90;;;;;;4997071;28;20186;-68
2022/07/23 08:27:58;;;;;;;8.40;3.67;;;19.20;99.90;;;;;;4999086;28;20123;-67
2022/07/23 08:30:25;;;;;;;5.30;3.17;;;19.20;99.90;;;;;;4998284;28;20116;-67
2022/07/23 08:33:07;;;;;;;13.55;3.58;;;19.30;99.90;;;;;;4999149;28;20084;-67
2022/07/23 08:35:57;;;;;;;6.75;4.15;;;19.50;99.90;;;;;;5000189;28;20129;-67
2022/07/23 08:38:28;;;;;;;8.32;3.30;;;19.60;99.90;;;;;;5001646;28;20204;-70
2022/07/23 08:40:59;;;;;;;8.43;3.20;;;19.70;99.90;;;;;;5002575;28;20061;-67
2022/07/23 08:43:32;;;;;;;5.63;3.08;;;19.60;99.90;;;;;;4997968;28;20058;-70
2022/07/23 08:46:01;;;;;;;5.40;3.67;;;19.50;99.90;;;;;;4991348;28;20078;-70
2022/07/23 08:48:30;;;;;;;4.47;3.83;;;19.50;99.90;;;;;;4992478;28;20038;-70
2022/07/23 08:50:59;;;;;;;6.20;3.17;;;19.40;99.90;;;;;;4999036;28;20049;-67
2022/07/23 08:53:28;;;;;;;5.68;3.85;;;19.40;99.90;;;;;;4994883;28;20054;-70
2022/07/23 08:55:57;;;;;;;5.57;5.00;;;19.30;99.90;;;;;;5003030;28;20046;-71
2022/07/23 08:58:25;;;;;;;5.55;3.50;;;19.40;99.90;;;;;;5001732;28;20042;-70
2022/07/23 09:00:58;;;;;;;4.93;3.90;;;19.40;99.90;;;;;;4995234;28;20050;-70
2022/07/23 09:03:34;;;;;;;3.40;2.85;;;19.40;99.90;;;;;;4996771;28;20167;-68
2022/07/23 09:06:02;;;;;;;8.80;4.57;;;19.60;99.90;;;;;;5003767;28;20054;-67
2022/07/23 09:08:37;;;;;;;5.20;3.80;;;19.80;99.90;;;;;;5001112;28;20073;-68
2022/07/23 09:11:09;;;;;;;5.75;4.35;;;19.90;99.90;;;;;;5000541;28;20049;-66
2022/07/23 09:13:45;;;;;;;5.22;3.60;;;19.90;99.90;;;;;;4993532;28;20141;-68
2022/07/23 09:16:13;;;;;;;5.00;4.43;;;19.80;99.90;;;;;;4990086;28;20061;-68
2022/07/23 09:18:55;;;;;;;3.65;3.25;;;19.80;99.90;;;;;;4994862;28;20042;-69
2022/07/23 09:21:25;;;;;;;7.38;3.63;;;19.80;99.90;;;;;;5005715;28;20046;-71
2022/07/23 09:24:04;;;;;;;6.93;3.47;;;19.60;99.90;;;;;;5001659;28;20049;-68
2022/07/23 09:26:35;;;;;;;;;;;19.80;99.90;;;;;;5005138;28;20119;-69
2022/07/23 09:29:06;;;;;;;4.05;3.67;;;20.00;99.90;;;;;;4992748;28;20008;-68
2022/07/23 09:31:42;;;;;;;5.20;2.95;;;20.30;99.90;;;;;;4994262;28;20085;-70
2022/07/23 09:34:14;;;;;;;4.10;2.83;;;20.40;99.90;;;;;;4996035;28;20047;-68
2022/07/23 09:36:42;;;;;;;4.78;2.90;;;20.40;99.90;;;;;;4997726;28;20144;-67
2022/07/23 09:39:09;;;;;;;6.75;4.72;;;20.50;99.90;;;;;;5000564;28;20072;-70
2022/07/23 09:41:38;;;;;;;4.10;3.70;;;20.60;99.90;;;;;;5002560;28;20080;-67
2022/07/23 09:44:13;;;;;;;4.90;3.47;;;20.50;99.90;;;;;;4994971;28;20073;-72
2022/07/23 09:46:41;;;;;;;5.80;3.97;;;20.50;99.90;;;;;;4997924;28;20377;-72
2022/07/23 09:49:18;;;;;;;4.47;3.72;;;20.60;99.90;;;;;;4997855;28;20523;-67
2022/07/23 09:51:58;;;;;;;3.92;3.58;;;20.60;99.90;;;;;;4992438;28;20040;-68
2022/07/23 09:54:34;;;;;;;3.22;2.92;;;20.30;99.90;;;;;;4993679;28;20042;-67
2022/07/23 09:57:14;;;;;;;6.63;3.50;;;20.20;99.90;;;;;;4987894;28;20050;-68
2022/07/23 09:59:43;;;;;;;3.47;2.80;;;20.40;99.90;;;;;;4990702;28;20489;-67
2022/07/23 10:02:12;;;;;;;5.28;3.75;;;20.60;99.90;;;;;;5006446;28;20380;-67
2022/07/23 10:05:04;;;;;;;3.72;2.83;;;20.40;99.90;;;;;;5000828;28;20041;-69
2022/07/23 10:07:51;;;;;;;6.35;4.53;;;20.50;99.90;;;;;;5003236;28;20492;-68
2022/07/23 10:10:59;;;;;;;6.43;4.18;;;20.20;99.90;;;;;;4976915;28;20444;-67
2022/07/23 10:16:27;;;;;;;5.03;2.85;;;20.30;99.90;;;;;;4986807;28;20046;-68
2022/07/23 10:18:55;;;;;;;4.45;3.38;;;20.20;99.90;;;;;;4993265;28;20135;-67
2022/07/23 10:21:30;;;;;;;5.10;3.35;;;20.00;99.90;;;;;;4998276;28;20129;-69
2022/07/23 10:24:16;;;;;;;5.18;3.70;;;19.90;99.90;;;;;;5001087;28;20219;-68
2022/07/23 10:27:00;;;;;;;6.60;4.07;;;19.90;99.90;;;;;;4997948;28;20336;-69
2022/07/23 10:29:46;;;;;;;6.60;4.55;;;20.10;99.90;;;;;;4988803;28;20092;-67
2022/07/23 10:32:45;;;;;;;5.65;3.58;;;20.20;99.90;;;;;;5001876;28;20441;-67
2022/07/23 10:35:36;;;;;;;6.45;4.30;;;20.30;99.90;;;;;;4984713;28;20046;-67
2022/07/23 10:38:18;;;;;;;3.80;2.90;;;20.30;99.90;;;;;;5001841;28;20136;-68
2022/07/23 10:40:57;;;;;;;3.47;2.90;;;20.30;99.90;;;;;;4993537;28;20329;-67
2022/07/23 10:43:25;;;;;;;7.68;3.42;;;20.50;99.90;;;;;;4999007;28;20054;-66
2022/07/23 10:45:52;;;;;;;6.63;3.45;;;20.50;99.90;;;;;;4994337;28;20180;-67
2022/07/23 10:48:27;;;;;;;4.15;3.85;;;20.80;99.90;;;;;;5004343;28;20444;-68
2022/07/23 10:51:06;;;;;;;5.22;3.42;;;21.00;99.90;;;;;;5007808;28;20066;-67
2022/07/23 10:53:51;;;;;;;8.80;4.72;;;20.80;99.90;;;;;;4998105;28;20081;-72
2022/07/23 10:56:49;;;;;;;3.70;2.97;;;20.60;99.90;;;;;;4999155;28;20058;-67
2022/07/23 10:59:18;;;;;;;3.08;2.88;;;20.60;99.90;;;;;;4985355;28;20184;-68
2022/07/23 11:01:45;;;;;;;4.40;3.55;;;20.60;99.90;;;;;;4997887;28;20050;-68
2022/07/23 11:04:13;;;;;;;4.10;3.05;;;20.60;99.90;;;;;;4985744;28;20412;-69
2022/07/23 11:06:48;;;;;;;4.45;3.60;;;20.50;99.90;;;;;;4985381;28;20125;-67
2022/07/23 11:09:42;;;;;;;4.68;3.35;;;20.50;99.90;;;;;;4989993;28;20057;-71
2022/07/23 11:12:24;;;;;;;5.07;3.50;;;20.80;99.90;;;;;;4989967;28;20582;-69
2022/07/23 11:15:09;;;;;;;7.20;3.60;;;21.10;99.90;;;;;;5003399;28;20054;-69
2022/07/23 11:17:59;;;;;;;5.88;3.97;;;21.30;99.90;;;;;;5003433;28;20042;-67
2022/07/23 11:20:26;;;;;;;;;;;21.10;99.90;;;;;;5003109;28;20960;-67
2022/07/23 11:22:58;;;;;;;6.85;4.72;;;21.20;99.90;;;;;;4989937;28;19921;-70
2022/07/23 11:25:25;;;;;;;4.65;3.50;;;21.20;99.90;;;;;;4991905;28;20080;-67
2022/07/23 11:27:52;;;;;;;4.47;3.80;;;21.30;99.90;;;;;;4999003;28;21196;-67
2022/07/23 11:30:28;;;;;;;5.85;4.50;;;21.20;99.90;;;;;;4999381;28;20034;-72
2022/07/23 11:33:19;;;;;;;5.20;3.58;;;21.10;99.90;;;;;;4989448;28;20056;-67
2022/07/23 11:35:49;;;;;;;4.57;3.53;;;20.90;99.90;;;;;;4996215;28;20046;-67
2022/07/23 11:38:17;;;;;;;4.93;3.88;;;20.90;99.90;;;;;;4995640;28;20721;-67
2022/07/23 11:40:47;;;;;;;3.75;3.45;;;20.80;99.90;;;;;;5007637;28;20080;-67
2022/07/23 11:43:16;;;;;;;3.40;3.10;;;20.80;99.90;;;;;;4999935;28;20070;-67
2022/07/23 11:45:45;;;;;;;4.10;3.70;;;20.50;99.90;;;;;;5000855;28;20093;-67
2022/07/23 11:48:31;;;;;;;6.77;4.57;;;20.60;99.90;;;;;;4999602;28;20066;-71
2022/07/23 11:51:02;;;;;;;3.33;3.05;;;20.40;99.90;;;;;;4999032;28;20049;-67
2022/07/23 11:53:32;;;;;;;5.32;3.47;;;20.40;99.90;;;;;;4999388;28;20050;-69
2022/07/23 11:56:08;;;;;;;3.60;3.30;;;20.30;99.90;;;;;;5002625;28;20104;-68
2022/07/23 11:58:34;;;;;;;3.65;3.25;;;20.30;99.90;;;;;;4994310;28;20050;-67
2022/07/23 12:01:03;;;;;;;4.25;3.72;;;20.30;99.90;;;;;;5000484;28;20112;-69
2022/07/23 12:03:30;;;;;;;3.97;3.58;;;20.20;99.90;;;;;;4980847;28;20077;-69
2022/07/23 12:05:59;;;;;;;4.25;3.25;;;20.10;99.90;;;;;;5001598;28;20115;-69
2022/07/23 12:08:27;;;;;;;5.20;3.63;;;20.00;99.90;;;;;;4998149;28;20495;-69
2022/07/23 12:10:54;;;;;;;4.95;3.47;;;19.90;99.90;;;;;;4993491;28;20398;-68
2022/07/23 12:13:22;;;;;;;4.82;3.78;;;19.80;99.90;;;;;;4996104;28;20437;-70
2022/07/23 12:15:52;;;;;;;4.28;3.05;;;19.80;99.90;;;;;;5005115;28;20141;-74
2022/07/23 12:18:23;;;;;;;8.52;4.05;;;19.70;99.90;;;;;;4996524;28;20486;-68
2022/07/23 12:20:54;;;;;;;;;;;19.60;99.90;;;;;;5006809;28;20049;-74
2022/07/23 12:23:22;;;;;;;5.05;3.42;;;19.50;99.90;;;;;;4993628;28;19956;-68
2022/07/23 12:25:51;;;;;;;4.68;3.72;;;19.40;99.90;;;;;;5006308;28;20049;-69
2022/07/23 12:28:22;;;;;;;8.35;3.92;;;19.30;99.90;;;;;;5000721;28;20096;-67
2022/07/23 12:30:53;;;;;;;6.15;4.07;;;19.30;99.90;;;;;;4999146;28;20034;-68
2022/07/23 12:33:25;;;;;;;4.00;3.63;;;19.20;99.90;;;;;;4996146;28;20112;-69
2022/07/23 12:35:56;;;;;;;8.38;4.85;;;19.10;99.90;;;;;;5003016;28;20660;-68
2022/07/23 12:38:25;;;;;;;13.68;5.55;;;19.10;99.90;;;;;;4991983;28;20129;-67
2022/07/23 12:40:54;;;;;;;6.22;3.92;;;19.00;99.90;;;;;;4984463;28;20129;-70
2022/07/23 12:43:26;;;;;;;7.80;4.25;;;19.00;99.90;;;;;;4979157;28;20046;-68
2022/07/23 12:45:56;;;;;;;4.55;3.67;;;19.00;99.90;;;;;;4985796;28;20066;-69
2022/07/23 12:48:34;;;;;;;8.88;4.38;;;18.90;99.90;;;;;;5005643;28;20144;-67
2022/07/23 12:51:16;;;;;;;4.90;4.20;;;18.90;99.90;;;;;;4993627;28;20046;-69
2022/07/23 12:53:50;;;;;;;10.18;4.90;;;18.90;99.90;;;;;;4995852;28;20527;-68
2022/07/23 12:56:20;;;;;;;7.00;5.38;;;18.90;99.90;;;;;;4996271;28;20054;-71
2022/07/23 12:58:49;;;;;;;12.82;6.00;;;18.90;99.90;;;;;;4999694;28;20053;-69
2022/07/23 13:01:20;;;;;;;;;;;18.90;99.90;;;;;;5001066;28;20046;-67
2022/07/23 13:04:14;;;;;;;11.50;5.65;;;18.90;99.90;;;;;;5001003;28;20021;-67
2022/07/23 13:06:54;;;;;;;6.65;4.20;;;18.90;99.90;;;;;;4997569;28;20108;-68